Time;durP1;ratioP1;P1;durP2;ratioP2;P2;SDS_P1;SDS_P2;PMS_P1;PMS_P2;Temp;Humidity;BMP_temperature;BMP_pressure;BME280_temperature;BME280_humidity;BME280_pressure;Samples;Min_cycle;Max_cycle;Signal;HPM_P1;HPM_P2
2021/12/10 00:01:16;;;;;;;30.25;15.68;;;;;;;1.13;98.27;99727.97;5053309;28;20024;-59
2021/12/10 00:03:48;;;;;;;35.25;16.50;;;;;;;1.05;97.88;99718.44;5053480;28;20044;-60
2021/12/10 00:06:18;;;;;;;33.92;16.20;;;;;;;1.08;97.66;99715.19;5053259;28;20066;-59
2021/12/10 00:08:51;;;;;;;35.20;16.00;;;;;;;1.04;97.92;99700.44;5052949;28;20499;-59
2021/12/10 00:11:24;;;;;;;35.67;16.58;;;;;;;1.08;97.89;99701.56;5052744;28;20078;-60
2021/12/10 00:13:49;;;;;;;32.15;16.23;;;;;;;1.14;98.35;99696.94;5053186;28;20029;-60
2021/12/10 00:16:18;;;;;;;34.92;16.00;;;;;;;1.12;97.50;99682.75;5052777;28;20032;-59
2021/12/10 00:18:51;;;;;;;33.30;17.83;;;;;;;1.21;98.42;99691.22;5052091;28;20031;-59
2021/12/10 00:21:17;;;;;;;30.52;15.65;;;;;;;1.26;98.36;99690.41;5053490;28;20035;-59
2021/12/10 00:23:46;;;;;;;34.88;15.80;;;;;;;1.32;98.01;99681.97;5052963;28;20028;-59
2021/12/10 00:26:12;;;;;;;32.75;15.63;;;;;;;1.36;97.62;99669.41;5052520;28;20044;-60
2021/12/10 00:28:40;;;;;;;32.00;15.95;;;;;;;1.44;97.74;99667.22;5052768;28;20067;-60
2021/12/10 00:31:19;;;;;;;31.65;15.75;;;;;;;1.47;97.56;99651.13;5052559;28;20032;-60
2021/12/10 00:33:56;;;;;;;31.25;16.30;;;;;;;1.51;97.67;99641.31;5053237;28;20041;-59
2021/12/10 00:36:22;;;;;;;31.67;15.15;;;;;;;1.55;96.81;99652.50;5052868;28;20040;-60
2021/12/10 00:38:50;;;;;;;30.70;15.32;;;;;;;1.56;96.62;99646.75;5052589;28;20087;-60
2021/12/10 00:41:17;;;;;;;33.40;14.18;;;;;;;1.54;96.06;99640.78;5052714;28;20082;-60
2021/12/10 00:43:43;;;;;;;31.33;15.45;;;;;;;1.54;96.75;99635.34;5052903;28;20057;-60
2021/12/10 00:46:08;;;;;;;28.30;13.23;;;;;;;1.58;96.55;99623.84;5053190;28;20060;-60
2021/12/10 00:48:34;;;;;;;28.48;13.63;;;;;;;1.59;95.69;99623.59;5052842;28;20124;-60
2021/12/10 00:51:01;;;;;;;26.08;13.93;;;;;;;1.58;95.85;99624.69;5052441;28;20468;-60
2021/12/10 00:53:26;;;;;;;29.88;16.02;;;;;;;1.58;96.15;99613.78;5054120;28;20447;-59
2021/12/10 00:55:52;;;;;;;30.30;15.07;;;;;;;1.52;95.21;99620.31;5056622;28;20034;-60
2021/12/10 00:58:19;;;;;;;30.05;14.70;;;;;;;1.49;95.11;99610.00;5056527;28;20033;-60
2021/12/10 01:00:49;;;;;;;26.45;13.27;;;;;;;1.43;95.10;99597.44;5056697;28;20040;-59
2021/12/10 01:03:19;;;;;;;26.73;12.10;;;;;;;1.37;95.75;99577.59;5056991;28;20036;-60
2021/12/10 01:05:48;;;;;;;31.10;13.90;;;;;;;1.29;95.44;99578.97;5055711;28;20025;-59
2021/12/10 01:08:13;;;;;;;27.08;13.98;;;;;;;1.34;95.44;99581.66;5055515;28;20025;-59
2021/12/10 01:10:47;;;;;;;29.17;14.25;;;;;;;1.27;95.94;99561.25;5056423;28;20358;-60
2021/12/10 01:13:17;;;;;;;28.95;13.65;;;;;;;1.30;95.96;99557.97;5056394;28;20404;-59
2021/12/10 01:27:10;;;;;;;28.35;14.20;;;;;;;1.22;95.43;99535.66;5055796;28;20072;-60
2021/12/10 01:29:40;;;;;;;26.42;12.82;;;;;;;1.22;95.88;99513.03;5056258;28;20044;-60
2021/12/10 01:32:08;;;;;;;31.65;13.20;;;;;;;1.19;95.23;99500.78;5056563;28;20029;-60
2021/12/10 01:34:34;;;;;;;24.70;11.82;;;;;;;1.22;95.33;99500.22;5055214;28;20108;-60
2021/12/10 01:37:02;;;;;;;25.13;12.57;;;;;;;1.20;95.48;99502.41;5056078;28;20400;-62
2021/12/10 01:39:33;;;;;;;25.85;11.70;;;;;;;1.21;95.82;99498.59;5056252;28;20096;-61
2021/12/10 01:42:13;;;;;;;22.65;11.10;;;;;;;1.23;95.40;99492.84;5056100;28;20108;-61
2021/12/10 01:44:43;;;;;;;23.58;10.63;;;;;;;1.24;95.02;99491.78;5056206;28;20025;-61
2021/12/10 01:47:09;;;;;;;22.13;10.95;;;;;;;1.24;95.17;99484.44;5056038;28;20017;-61
2021/12/10 01:49:36;;;;;;;21.98;10.38;;;;;;;1.22;95.55;99472.19;5054456;28;20025;-61
2021/12/10 01:52:02;;;;;;;23.58;11.13;;;;;;;1.20;94.35;99475.16;5055678;28;20444;-60
2021/12/10 01:54:34;;;;;;;21.25;11.18;;;;;;;1.16;95.25;99471.38;5055419;28;20108;-60
2021/12/10 01:57:06;;;;;;;22.10;10.90;;;;;;;1.16;95.08;99470.53;5055624;28;20025;-60
2021/12/10 01:59:34;;;;;;;20.08;10.13;;;;;;;1.13;94.59;99461.03;5055446;28;20029;-59
2021/12/10 02:02:05;;;;;;;22.35;11.20;;;;;;;1.15;94.71;99460.75;5055110;28;20021;-58
2021/12/10 02:04:34;;;;;;;21.73;10.68;;;;;;;1.11;94.96;99452.31;5054476;28;20396;-60
2021/12/10 02:07:00;;;;;;;23.20;10.43;;;;;;;1.16;94.76;99462.38;5055550;28;20460;-60
2021/12/10 02:09:26;;;;;;;22.15;10.32;;;;;;;1.15;94.93;99452.56;5055918;28;20079;-59
2021/12/10 02:11:52;;;;;;;24.00;10.82;;;;;;;1.15;94.40;99447.94;5055699;28;20086;-59
2021/12/10 02:14:18;;;;;;;23.20;11.57;;;;;;;1.17;94.27;99442.22;5055821;28;20032;-59
2021/12/10 02:16:43;;;;;;;22.45;10.75;;;;;;;1.17;94.85;99431.31;5055154;28;20033;-59
2021/12/10 02:19:10;;;;;;;24.05;11.40;;;;;;;1.19;94.77;99429.13;5055478;28;20025;-59
2021/12/10 02:21:39;;;;;;;22.85;10.88;;;;;;;1.15;94.24;99426.16;5055084;28;20031;-60
2021/12/10 02:24:04;;;;;;;20.75;9.77;;;;;;;1.19;94.38;99412.78;5055469;28;20494;-60
2021/12/10 02:26:34;;;;;;;20.92;9.90;;;;;;;1.11;93.88;99408.72;5054723;28;20223;-60
2021/12/10 02:29:01;;;;;;;22.67;9.98;;;;;;;1.16;94.17;99402.44;5055611;28;20033;-60
2021/12/10 02:31:27;;;;;;;22.48;9.57;;;;;;;1.14;93.94;99400.00;5054830;28;20040;-60
2021/12/10 02:33:55;;;;;;;22.55;10.70;;;;;;;1.16;94.20;99388.81;5055210;28;20040;-60
2021/12/10 02:36:20;;;;;;;23.10;9.50;;;;;;;1.15;94.20;99381.75;5055114;28;20112;-60
2021/12/10 02:38:49;;;;;;;22.38;10.20;;;;;;;1.18;93.84;99392.09;5055142;28;20104;-60
2021/12/10 02:41:17;;;;;;;21.23;9.20;;;;;;;1.08;94.02;99377.44;5054459;28;20032;-60
2021/12/10 02:43:43;;;;;;;20.17;9.50;;;;;;;1.12;94.19;99376.88;5055093;28;20021;-61
2021/12/10 02:46:08;;;;;;;22.70;9.52;;;;;;;1.12;93.89;99364.06;5054323;28;20029;-60
2021/12/10 02:48:34;;;;;;;18.25;8.73;;;;;;;1.14;93.76;99355.59;5054826;28;20445;-60
2021/12/10 02:51:03;;;;;;;20.13;9.70;;;;;;;1.05;93.30;99348.00;5054544;28;20135;-60
2021/12/10 02:53:34;;;;;;;17.90;8.75;;;;;;;1.14;93.71;99350.16;5054408;28;20060;-60
2021/12/10 02:55:59;;;;;;;19.02;9.85;;;;;;;1.13;93.79;99346.63;5054926;28;20037;-60
2021/12/10 02:58:26;;;;;;;19.77;8.88;;;;;;;1.12;93.35;99349.63;5054542;28;20021;-59
2021/12/10 03:00:56;;;;;;;19.92;8.43;;;;;;;1.12;93.65;99345.00;5052951;28;20142;-59
2021/12/10 03:03:21;;;;;;;19.85;8.20;;;;;;;1.12;93.36;99341.47;5054394;28;20037;-59
2021/12/10 03:05:47;;;;;;;20.23;8.63;;;;;;;1.12;93.50;99336.81;5054358;28;20021;-60
2021/12/10 03:08:13;;;;;;;19.88;8.30;;;;;;;1.15;93.98;99338.16;5054435;28;20036;-60
2021/12/10 03:10:40;;;;;;;19.35;8.90;;;;;;;1.15;93.45;99322.66;5053936;28;20147;-60
2021/12/10 03:13:06;;;;;;;19.33;9.05;;;;;;;1.16;92.77;99321.56;5054224;28;20056;-60
2021/12/10 03:15:32;;;;;;;19.88;8.90;;;;;;;1.16;92.97;99316.09;5052744;28;20518;-59
2021/12/10 03:18:00;;;;;;;20.23;8.93;;;;;;;1.16;92.66;99327.00;5054026;28;20464;-60
2021/12/10 03:20:29;;;;;;;21.13;9.50;;;;;;;1.12;92.31;99311.50;5053506;28;20028;-61
2021/12/10 03:22:55;;;;;;;17.48;8.82;;;;;;;1.17;93.09;99314.19;5053582;28;20021;-61
2021/12/10 03:25:21;;;;;;;20.70;9.63;;;;;;;1.18;92.89;99305.72;5053756;28;20060;-61
2021/12/10 03:27:47;;;;;;;20.83;9.95;;;;;;;1.20;92.74;99297.28;5054378;28;20130;-61
2021/12/10 03:30:17;;;;;;;20.77;9.27;;;;;;;1.23;92.50;99286.63;5054083;28;20081;-60
2021/12/10 03:32:43;;;;;;;20.55;9.95;;;;;;;1.20;92.19;99273.56;5053899;28;20036;-60
2021/12/10 03:35:26;;;;;;;18.88;9.05;;;;;;;1.23;91.89;99275.75;5054330;28;20047;-60
2021/12/10 03:37:53;;;;;;;22.50;9.70;;;;;;;1.23;92.00;99264.00;5054189;28;20033;-59
2021/12/10 03:40:19;;;;;;;27.45;10.40;;;;;;;1.24;91.56;99273.81;5053776;28;20033;-60
2021/12/10 03:42:47;;;;;;;21.58;9.48;;;;;;;1.17;91.57;99255.09;5053557;28;20048;-61
2021/12/10 03:45:15;;;;;;;20.40;9.18;;;;;;;1.16;91.77;99248.00;5053835;28;20041;-60
2021/12/10 03:47:41;;;;;;;20.20;9.68;;;;;;;1.27;91.65;99262.38;5053751;28;20083;-59
2021/12/10 03:50:09;;;;;;;19.73;9.27;;;;;;;1.26;91.46;99263.47;5053338;28;20025;-59
2021/12/10 03:52:35;;;;;;;20.05;8.93;;;;;;;1.28;90.86;99252.25;5053737;28;20486;-60
2021/12/10 03:55:01;;;;;;;19.95;8.88;;;;;;;1.28;91.82;99244.09;5053672;28;20104;-59
2021/12/10 03:57:27;;;;;;;20.13;9.02;;;;;;;1.26;90.98;99235.41;5053778;28;20025;-59
2021/12/10 03:59:53;;;;;;;19.92;9.30;;;;;;;1.21;91.12;99231.63;5053369;28;20432;-59
2021/12/10 04:02:18;;;;;;;21.05;8.70;;;;;;;1.23;90.97;99231.31;5053274;28;20025;-59
2021/12/10 04:04:47;;;;;;;19.75;8.85;;;;;;;1.22;90.65;99232.44;5053230;28;20017;-59
2021/12/10 04:07:22;;;;;;;18.65;8.85;;;;;;;1.11;90.93;99223.50;5053257;28;20040;-59
2021/12/10 04:09:49;;;;;;;18.17;8.85;;;;;;;1.19;91.18;99230.28;5053370;28;20111;-59
2021/12/10 04:12:15;;;;;;;19.38;8.52;;;;;;;1.20;90.65;99231.91;5053182;28;20064;-59
2021/12/10 04:14:42;;;;;;;22.25;9.10;;;;;;;1.20;91.54;99223.75;5053130;28;20032;-59
2021/12/10 04:17:07;;;;;;;16.00;7.95;;;;;;;1.21;90.52;99217.19;5053224;28;20021;-58
2021/12/10 04:19:34;;;;;;;19.35;9.55;;;;;;;1.23;90.57;99218.53;5052978;28;20391;-59
2021/12/10 04:22:03;;;;;;;17.73;7.95;;;;;;;1.28;91.22;99211.41;5052837;28;20048;-60
2021/12/10 04:24:31;;;;;;;15.63;7.68;;;;;;;1.22;90.81;99197.03;5052826;28;20575;-59
2021/12/10 04:26:58;;;;;;;19.83;8.48;;;;;;;1.28;90.83;99201.34;5052351;28;20029;-59
2021/12/10 04:29:24;;;;;;;20.38;8.35;;;;;;;1.28;91.00;99193.16;5053245;28;20037;-59
2021/12/10 04:31:52;;;;;;;18.92;8.30;;;;;;;1.34;90.15;99191.22;5053218;28;20028;-60
2021/12/10 04:34:20;;;;;;;19.70;8.35;;;;;;;1.36;90.78;99180.84;5052943;28;20044;-60
2021/12/10 04:36:46;;;;;;;18.63;8.25;;;;;;;1.37;90.85;99175.09;5053339;28;20029;-60
2021/12/10 04:39:11;;;;;;;21.83;8.90;;;;;;;1.37;90.24;99174.28;5053112;28;20027;-60
2021/12/10 04:41:37;;;;;;;19.05;8.13;;;;;;;1.40;90.29;99169.09;5052451;28;20049;-59
2021/12/10 04:44:03;;;;;;;18.33;9.18;;;;;;;1.40;90.53;99169.09;5052732;28;20029;-60
2021/12/10 04:46:29;;;;;;;17.55;7.95;;;;;;;1.42;90.34;99160.63;5052856;28;20029;-59
2021/12/10 04:49:03;;;;;;;18.48;8.35;;;;;;;1.40;90.35;99147.28;5053038;28;20100;-59
2021/12/10 04:51:31;;;;;;;;;;;;;;;1.55;90.88;99143.59;5051590;28;20056;-59
2021/12/10 04:53:58;;;;;;;17.00;7.93;;;;;;;1.50;90.38;99143.63;5052625;28;19931;-60
2021/12/10 04:56:24;;;;;;;17.95;7.72;;;;;;;1.50;90.38;99137.38;5052651;28;20538;-59
2021/12/10 04:58:50;;;;;;;17.38;7.95;;;;;;;1.54;89.87;99128.34;5052520;28;20028;-60
2021/12/10 05:01:16;;;;;;;16.73;7.95;;;;;;;1.56;89.88;99128.84;5052979;28;20075;-60
2021/12/10 05:03:41;;;;;;;16.88;8.25;;;;;;;1.61;89.48;99121.72;5053277;28;20120;-60
2021/12/10 05:06:06;;;;;;;17.55;8.93;;;;;;;1.60;89.95;99112.75;5051126;28;20544;-60
2021/12/10 05:08:34;;;;;;;17.02;7.85;;;;;;;1.63;89.10;99109.44;5052469;28;20033;-61
2021/12/10 05:11:01;;;;;;;14.82;7.60;;;;;;;1.64;88.81;99102.88;5052337;28;20099;-59
2021/12/10 05:13:26;;;;;;;16.83;7.00;;;;;;;1.63;89.89;99092.28;5052817;28;20031;-60
2021/12/10 05:15:57;;;;;;;16.98;7.10;;;;;;;1.64;90.19;99091.19;5052104;28;20041;-60
2021/12/10 05:18:23;;;;;;;16.20;6.85;;;;;;;1.65;89.29;99090.06;5053907;28;20025;-60
2021/12/10 05:20:49;;;;;;;17.00;7.50;;;;;;;1.69;89.29;99088.38;5052770;28;20100;-60
2021/12/10 05:23:18;;;;;;;17.58;7.15;;;;;;;1.67;89.12;99087.84;5052278;28;20344;-60
2021/12/10 05:25:44;;;;;;;19.38;7.75;;;;;;;1.70;89.13;99079.91;5052091;28;20056;-59
2021/12/10 05:28:09;;;;;;;16.58;7.20;;;;;;;1.74;88.08;99095.69;5052508;28;20072;-59
2021/12/10 05:30:36;;;;;;;15.55;7.55;;;;;;;1.72;88.62;99093.25;5052087;28;20486;-58
2021/12/10 05:33:03;;;;;;;17.40;8.68;;;;;;;1.72;88.71;99087.81;5052755;28;20021;-59
2021/12/10 05:35:32;;;;;;;15.13;7.20;;;;;;;1.76;89.25;99088.84;5052145;28;20061;-59
2021/12/10 05:37:58;;;;;;;17.33;7.70;;;;;;;1.76;89.03;99077.13;5052195;28;20025;-59
2021/12/10 05:40:25;;;;;;;17.60;7.40;;;;;;;1.78;88.86;99080.38;5055173;28;20029;-59
2021/12/10 05:42:51;;;;;;;14.90;6.60;;;;;;;1.78;89.50;99078.47;5055603;28;20111;-60
2021/12/10 05:45:19;;;;;;;16.85;7.68;;;;;;;1.74;89.79;99079.34;5055767;28;20038;-60
2021/12/10 05:47:45;;;;;;;13.40;7.15;;;;;;;1.75;89.45;99070.06;5055966;28;20055;-59
2021/12/10 05:50:13;;;;;;;15.10;7.57;;;;;;;1.80;89.49;99072.69;5054728;28;20029;-60
2021/12/10 05:52:39;;;;;;;15.75;7.28;;;;;;;1.81;89.40;99064.25;5056131;28;20025;-59
2021/12/10 05:55:05;;;;;;;16.08;7.22;;;;;;;1.83;88.40;99053.88;5055441;28;20043;-59
2021/12/10 05:57:31;;;;;;;14.85;7.18;;;;;;;1.85;89.43;99059.81;5054939;28;20041;-59
2021/12/10 05:59:56;;;;;;;18.83;7.50;;;;;;;1.87;88.28;99054.09;5055486;28;20017;-59
2021/12/10 06:02:21;;;;;;;15.85;7.50;;;;;;;1.85;88.43;99048.13;5055136;28;20403;-60
2021/12/10 06:04:47;;;;;;;12.70;7.82;;;;;;;1.88;88.38;99053.00;5055393;28;20036;-59
2021/12/10 06:07:13;;;;;;;13.63;7.20;;;;;;;1.91;87.82;99048.88;5055072;28;20541;-60
2021/12/10 06:09:38;;;;;;;14.20;7.00;;;;;;;1.95;88.39;99041.69;5055345;28;20138;-60
2021/12/10 06:12:04;;;;;;;14.55;7.13;;;;;;;1.95;88.41;99045.25;5055200;28;20178;-59
2021/12/10 06:14:29;;;;;;;12.90;6.95;;;;;;;1.97;88.41;99044.97;5055544;28;20079;-61
2021/12/10 06:16:54;;;;;;;17.88;8.05;;;;;;;1.95;88.76;99037.06;5055085;28;20029;-60
2021/12/10 06:19:21;;;;;;;15.68;6.70;;;;;;;1.97;88.35;99039.50;5055488;28;20087;-60
2021/12/10 06:21:47;;;;;;;17.98;7.78;;;;;;;1.96;88.01;99035.16;5055269;28;20033;-60
2021/12/10 06:24:12;;;;;;;17.98;8.23;;;;;;;1.96;87.94;99033.25;5055072;28;20107;-60
2021/12/10 06:26:38;;;;;;;15.77;6.93;;;;;;;1.96;88.62;99033.25;5055079;28;20056;-60
2021/12/10 06:29:05;;;;;;;19.38;8.05;;;;;;;1.98;88.25;99022.88;5055000;28;20029;-60
2021/12/10 06:31:31;;;;;;;14.25;7.18;;;;;;;2.00;88.57;99031.53;5055707;28;20036;-60
2021/12/10 06:33:57;;;;;;;15.23;7.65;;;;;;;1.99;87.88;99027.19;5055190;28;20028;-60
2021/12/10 06:36:23;;;;;;;12.60;7.40;;;;;;;1.98;87.65;99025.59;5055057;28;20112;-60
2021/12/10 06:38:49;;;;;;;17.52;7.43;;;;;;;2.01;88.53;99026.91;5055174;28;20167;-60
2021/12/10 06:41:15;;;;;;;17.70;7.72;;;;;;;1.97;87.77;99018.50;5054809;28;20040;-60
2021/12/10 06:43:42;;;;;;;18.42;7.38;;;;;;;1.92;88.29;99015.03;5054909;28;20044;-60
2021/12/10 06:46:07;;;;;;;14.93;7.60;;;;;;;1.97;88.40;99023.97;5054997;28;20107;-60
2021/12/10 06:48:34;;;;;;;14.00;7.38;;;;;;;1.97;88.03;99014.97;5052684;28;20171;-60
2021/12/10 06:51:03;;;;;;;15.98;7.28;;;;;;;1.98;89.10;99020.13;5053303;28;20040;-59
2021/12/10 06:53:30;;;;;;;18.50;7.75;;;;;;;1.93;88.20;99016.66;5053297;28;20033;-59
2021/12/10 06:55:56;;;;;;;17.65;7.00;;;;;;;2.01;88.44;99032.38;5053226;28;20031;-60
2021/12/10 06:58:23;;;;;;;14.43;7.38;;;;;;;2.00;88.57;99028.00;5053219;28;20067;-60
2021/12/10 07:01:06;;;;;;;15.52;7.28;;;;;;;2.02;88.83;99028.53;5053466;28;20028;-60
2021/12/10 07:03:32;;;;;;;19.17;7.43;;;;;;;1.98;88.55;99028.31;5053309;28;20116;-60
2021/12/10 07:05:59;;;;;;;20.85;7.53;;;;;;;1.98;88.13;99031.03;5053292;28;20119;-60
2021/12/10 07:08:28;;;;;;;15.48;7.47;;;;;;;1.96;87.66;99035.16;5053068;28;20029;-60
2021/12/10 07:10:54;;;;;;;18.17;7.72;;;;;;;1.95;88.14;99031.63;5053076;28;20040;-60
2021/12/10 07:13:20;;;;;;;15.70;7.20;;;;;;;1.93;88.28;99024.84;5053142;28;20029;-59
2021/12/10 07:15:48;;;;;;;15.82;7.20;;;;;;;1.92;89.04;99021.28;5053109;28;20039;-59
2021/12/10 07:18:14;;;;;;;18.27;7.50;;;;;;;1.95;88.58;99028.91;5053018;28;20033;-59
2021/12/10 07:20:41;;;;;;;17.92;7.45;;;;;;;1.99;88.26;99035.38;5052796;28;20025;-60
2021/12/10 07:23:07;;;;;;;17.45;7.78;;;;;;;1.97;88.22;99034.03;5052834;28;20036;-59
2021/12/10 07:25:33;;;;;;;18.27;8.00;;;;;;;1.94;88.45;99026.44;5052588;28;20065;-60
2021/12/10 07:27:59;;;;;;;16.58;7.60;;;;;;;1.91;88.55;99030.56;5052635;28;20571;-59
2021/12/10 07:30:27;;;;;;;16.98;7.88;;;;;;;1.92;88.56;99031.41;5052569;28;20036;-58
2021/12/10 07:32:53;;;;;;;19.58;7.72;;;;;;;1.94;87.58;99030.00;5052248;28;20168;-59
2021/12/10 07:35:19;;;;;;;20.80;9.30;;;;;;;1.91;88.18;99033.31;5050416;28;20136;-59
2021/12/10 07:37:45;;;;;;;14.13;7.68;;;;;;;1.97;87.68;99021.25;5051926;28;20116;-59
2021/12/10 07:40:17;;;;;;;20.48;8.13;;;;;;;1.98;87.59;99028.31;5052184;28;20115;-60
2021/12/10 07:42:42;;;;;;;20.38;7.90;;;;;;;1.98;87.96;99014.69;5052058;28;20550;-59
2021/12/10 07:45:10;;;;;;;16.75;8.13;;;;;;;1.99;86.58;99013.56;5050964;28;20033;-59
2021/12/10 07:47:37;;;;;;;18.58;8.73;;;;;;;2.00;87.36;99014.38;5052365;28;20107;-60
2021/12/10 07:50:07;;;;;;;17.92;7.50;;;;;;;1.99;86.46;99020.94;5052648;28;20048;-59
2021/12/10 07:52:34;;;;;;;18.13;7.53;;;;;;;1.98;87.36;99025.59;5052344;28;20506;-59
2021/12/10 07:55:03;;;;;;;18.88;7.60;;;;;;;1.95;87.36;99015.25;5052337;28;20029;-59
2021/12/10 07:57:29;;;;;;;16.95;7.20;;;;;;;2.07;87.01;99027.66;5052039;28;20035;-59
2021/12/10 07:59:55;;;;;;;16.15;7.22;;;;;;;2.13;87.24;99024.53;5052308;28;20474;-59
2021/12/10 08:02:20;;;;;;;18.58;6.80;;;;;;;2.16;86.88;99034.06;5051956;28;20029;-60
2021/12/10 08:04:46;;;;;;;17.58;6.70;;;;;;;2.17;85.57;99036.50;5052424;28;20116;-59
2021/12/10 08:07:13;;;;;;;16.02;6.50;;;;;;;2.21;86.75;99042.19;5052072;28;20024;-58
2021/12/10 08:09:39;;;;;;;16.67;6.20;;;;;;;2.23;86.05;99037.25;5052408;28;20064;-59
2021/12/10 08:12:04;;;;;;;17.40;7.00;;;;;;;2.26;85.86;99039.38;5050940;28;20035;-60
2021/12/10 08:14:30;;;;;;;19.33;7.20;;;;;;;2.29;85.82;99032.53;5051605;28;20033;-57
2021/12/10 08:16:55;;;;;;;17.75;7.00;;;;;;;2.31;85.45;99030.31;5050571;28;20029;-57
2021/12/10 08:19:20;;;;;;;19.23;7.57;;;;;;;2.33;85.78;99028.91;5050657;28;20660;-59
2021/12/10 08:21:46;;;;;;;17.23;7.00;;;;;;;2.34;85.14;99029.72;5051800;28;20357;-59
2021/12/10 08:24:11;;;;;;;18.77;7.78;;;;;;;2.38;85.70;99038.09;5051433;28;20029;-59
2021/12/10 08:26:37;;;;;;;17.52;7.15;;;;;;;2.40;84.83;99033.16;5051681;28;20029;-59
2021/12/10 08:29:06;;;;;;;18.80;7.40;;;;;;;2.43;85.44;99046.22;5050496;28;20047;-58
2021/12/10 08:31:32;;;;;;;17.45;7.07;;;;;;;2.44;85.73;99039.66;5051628;28;20036;-59
2021/12/10 08:33:58;;;;;;;17.60;7.95;;;;;;;2.44;84.72;99039.66;5051750;28;20101;-60
2021/12/10 08:36:24;;;;;;;18.40;7.85;;;;;;;2.47;85.34;99047.25;5051086;28;20025;-60
2021/12/10 08:38:51;;;;;;;18.95;7.30;;;;;;;2.45;85.60;99028.44;5051798;28;20036;-59
2021/12/10 08:41:23;;;;;;;19.73;7.00;;;;;;;2.53;84.83;99042.53;5051358;28;20025;-58
2021/12/10 08:43:50;;;;;;;19.10;7.38;;;;;;;2.50;84.98;99047.47;5051602;28;20372;-59
2021/12/10 08:46:17;;;;;;;21.70;7.97;;;;;;;2.56;85.65;99042.75;5051708;28;20037;-59
2021/12/10 08:48:43;;;;;;;19.17;7.82;;;;;;;2.60;84.37;99041.06;5051175;28;20025;-59
2021/12/10 08:51:15;;;;;;;19.42;7.80;;;;;;;2.62;84.93;99038.84;5051387;28;20053;-60
2021/12/10 08:53:41;;;;;;;20.60;8.20;;;;;;;2.61;84.55;99048.13;5051720;28;20037;-60
2021/12/10 08:56:08;;;;;;;18.88;8.18;;;;;;;2.67;84.01;99043.41;5051373;28;20037;-60
2021/12/10 08:58:33;;;;;;;19.63;8.38;;;;;;;2.67;84.07;99035.22;5050291;28;20531;-60
2021/12/10 09:01:16;;;;;;;18.75;8.27;;;;;;;2.66;84.57;99030.84;5050834;28;20124;-60
2021/12/10 09:03:44;;;;;;;19.83;8.05;;;;;;;2.65;84.00;99029.22;5050684;28;20028;-59
2021/12/10 09:06:10;;;;;;;20.83;8.60;;;;;;;2.73;83.58;99042.19;5050622;28;20022;-59
2021/12/10 09:08:36;;;;;;;20.83;8.40;;;;;;;2.75;84.29;99044.63;5050895;28;20041;-59
2021/12/10 09:11:01;;;;;;;21.67;8.48;;;;;;;2.79;84.49;99046.47;5050830;28;20033;-60
2021/12/10 09:13:26;;;;;;;22.10;8.90;;;;;;;2.84;84.88;99056.50;5051117;28;20051;-59
2021/12/10 09:15:57;;;;;;;20.92;8.80;;;;;;;2.84;84.90;99052.97;5053533;28;20086;-60
2021/12/10 09:18:23;;;;;;;20.20;8.38;;;;;;;2.88;83.94;99059.47;5055211;28;20037;-60
2021/12/10 09:20:53;;;;;;;18.95;7.80;;;;;;;2.84;83.85;99051.03;5053810;28;20559;-60
2021/12/10 09:23:22;;;;;;;20.27;8.05;;;;;;;2.96;83.68;99061.50;5054880;28;20048;-60
2021/12/10 09:25:50;;;;;;;23.20;8.27;;;;;;;2.96;83.46;99059.56;5054891;28;20032;-60
2021/12/10 09:28:15;;;;;;;18.77;7.80;;;;;;;2.98;83.87;99056.53;5054958;28;20048;-60
2021/12/10 09:30:44;;;;;;;19.73;7.45;;;;;;;2.95;82.52;99048.97;5054669;28;20389;-59
2021/12/10 09:33:10;;;;;;;20.80;8.40;;;;;;;3.00;82.96;99059.78;5054820;28;20033;-59
2021/12/10 09:35:37;;;;;;;20.67;7.85;;;;;;;3.06;83.89;99061.34;5068290;28;20029;-58
2021/12/10 09:38:04;;;;;;;19.90;8.40;;;;;;;3.09;83.28;99057.19;5054848;28;20025;-59
2021/12/10 09:40:34;;;;;;;19.73;8.13;;;;;;;3.13;82.58;99058.19;5055042;28;20131;-60
2021/12/10 09:43:02;;;;;;;19.58;8.15;;;;;;;3.20;82.28;99066.84;5054942;28;20087;-59
2021/12/10 09:45:32;;;;;;;18.88;7.93;;;;;;;3.17;82.55;99059.22;5054940;28;20036;-59
2021/12/10 09:47:58;;;;;;;18.70;7.63;;;;;;;3.28;82.12;99065.31;5054727;28;20456;-59
2021/12/10 09:50:27;;;;;;;17.80;7.20;;;;;;;3.27;81.74;99064.50;5054487;28;20029;-58
2021/12/10 09:52:54;;;;;;;18.90;7.78;;;;;;;3.29;82.18;99069.66;5054444;28;20033;-58
2021/12/10 09:55:20;;;;;;;18.20;7.82;;;;;;;3.31;81.53;99074.84;5054476;28;20036;-59
2021/12/10 09:57:48;;;;;;;16.15;7.20;;;;;;;3.36;82.17;99061.88;5054332;28;20029;-59
2021/12/10 10:00:22;;;;;;;18.85;7.60;;;;;;;3.41;81.75;99058.22;5054283;28;20037;-59
2021/12/10 10:02:48;;;;;;;18.77;7.50;;;;;;;3.43;81.15;99051.38;5054098;28;20032;-59
2021/12/10 10:05:14;;;;;;;20.55;8.15;;;;;;;3.43;81.05;99054.09;5053993;28;20475;-60
2021/12/10 10:07:39;;;;;;;23.10;7.93;;;;;;;3.50;82.15;99061.88;5054046;28;20065;-60
2021/12/10 10:10:12;;;;;;;20.10;7.18;;;;;;;3.51;81.11;99049.03;5054140;28;20071;-59
2021/12/10 10:12:41;;;;;;;17.80;7.33;;;;;;;3.57;80.55;99065.06;5054102;28;20075;-59
2021/12/10 10:15:12;;;;;;;17.55;6.75;;;;;;;3.58;80.86;99063.94;5052807;28;20344;-59
2021/12/10 10:17:38;;;;;;;20.35;7.28;;;;;;;3.61;80.54;99064.44;5053906;28;20441;-59
2021/12/10 10:20:05;;;;;;;18.50;7.40;;;;;;;3.61;80.13;99065.25;5054119;28;20570;-60
2021/12/10 10:22:31;;;;;;;19.52;7.70;;;;;;;3.61;81.50;99069.91;5053867;28;20064;-59
2021/12/10 10:24:57;;;;;;;16.30;7.60;;;;;;;3.64;80.09;99064.63;5053485;28;20095;-59
2021/12/10 10:27:28;;;;;;;19.50;7.60;;;;;;;3.57;81.37;99054.13;5053781;28;20029;-59
2021/12/10 10:30:04;;;;;;;17.33;7.80;;;;;;;3.65;80.76;99070.91;5054199;28;20032;-59
2021/12/10 10:32:32;;;;;;;19.98;7.70;;;;;;;3.63;80.92;99064.94;5054168;28;20025;-59
2021/12/10 10:35:05;;;;;;;18.92;7.78;;;;;;;3.59;81.04;99062.81;5052976;28;20132;-60
2021/12/10 10:37:32;;;;;;;17.43;7.37;;;;;;;3.57;81.37;99064.22;5052444;28;20472;-59
2021/12/10 10:39:58;;;;;;;19.08;7.40;;;;;;;3.58;80.56;99074.88;5054199;28;20021;-59
2021/12/10 10:42:27;;;;;;;19.52;7.43;;;;;;;3.61;80.39;99065.25;5053478;28;20448;-60
2021/12/10 10:44:56;;;;;;;18.00;7.00;;;;;;;3.64;80.89;99072.81;5053652;28;20037;-59
2021/12/10 10:47:23;;;;;;;18.35;7.53;;;;;;;3.67;80.27;99066.75;5051919;28;20381;-59
2021/12/10 10:49:55;;;;;;;16.80;6.68;;;;;;;3.67;80.79;99064.03;5055014;28;20033;-60
2021/12/10 10:52:31;;;;;;;16.55;7.53;;;;;;;3.72;81.16;99063.94;5054605;28;20021;-61
2021/12/10 10:55:15;;;;;;;16.40;7.38;;;;;;;3.79;81.40;99066.25;5054366;28;20075;-60
2021/12/10 10:57:54;;;;;;;17.85;6.90;;;;;;;3.83;81.44;99069.19;5053385;28;20422;-60
2021/12/10 11:00:28;;;;;;;16.60;7.28;;;;;;;3.86;81.31;99071.31;5054945;28;20021;-60
2021/12/10 11:02:59;;;;;;;20.05;8.05;;;;;;;3.84;79.92;99070.81;5054612;28;20025;-60
2021/12/10 11:05:25;;;;;;;18.10;7.70;;;;;;;3.85;80.10;99073.25;5053378;28;20468;-60
2021/12/10 11:07:58;;;;;;;19.90;8.05;;;;;;;3.88;80.33;99080.03;5054374;28;20158;-60
2021/12/10 11:10:43;;;;;;;17.73;7.30;;;;;;;3.86;80.28;99060.38;5054779;28;20133;-61
2021/12/10 11:13:13;;;;;;;;;;;;;;;3.99;80.74;99066.94;5054692;28;20036;-60
2021/12/10 11:15:52;;;;;;;18.90;7.45;;;;;;;3.87;79.52;99064.72;5054465;28;19909;-60
2021/12/10 11:18:17;;;;;;;20.10;7.78;;;;;;;3.86;79.56;99074.06;5054600;28;20468;-60
2021/12/10 11:20:44;;;;;;;18.42;8.45;;;;;;;3.84;79.89;99079.00;5054413;28;20035;-60
2021/12/10 11:23:12;;;;;;;19.77;8.15;;;;;;;3.83;79.19;99083.69;5054270;28;20104;-60
2021/12/10 11:25:45;;;;;;;19.02;7.28;;;;;;;3.86;79.83;99079.53;5054619;28;20151;-60
2021/12/10 11:28:22;;;;;;;18.58;7.85;;;;;;;3.93;79.56;99073.66;5054096;28;20029;-60
2021/12/10 11:30:53;;;;;;;20.17;7.32;;;;;;;3.95;80.40;99076.91;5054512;28;20017;-60
2021/12/10 11:33:22;;;;;;;19.40;7.88;;;;;;;3.92;79.06;99069.28;5054459;28;20357;-60
2021/12/10 11:35:52;;;;;;;17.05;7.05;;;;;;;3.94;78.61;99078.00;5054312;28;20028;-60
2021/12/10 11:38:23;;;;;;;15.85;6.97;;;;;;;3.90;78.78;99075.88;5053999;28;20110;-60
2021/12/10 11:40:52;;;;;;;18.70;7.72;;;;;;;3.92;79.82;99080.22;5054242;28;20249;-59
2021/12/10 11:49:22;;;;;;;17.48;7.18;;;;;;;4.05;78.73;99085.69;5054268;28;20134;-60
2021/12/10 11:52:01;;;;;;;16.90;6.78;;;;;;;3.99;77.50;99094.31;5053808;28;20029;-60